createdAt,value
2019-05-07T00:00:59.700Z,64.59
2019-05-07T00:01:59.632Z,64.56
2019-05-07T00:02:59.636Z,64.97
2019-05-07T00:04:01.888Z,64.76
2019-05-07T00:04:59.640Z,64.76
2019-05-07T00:05:59.594Z,64.56
2019-05-07T00:06:59.582Z,64.59
2019-05-07T00:07:59.640Z,64.69
2019-05-07T00:08:59.568Z,65.17
2019-05-07T00:09:59.564Z,65.10
2019-05-07T00:10:59.533Z,65.41
2019-05-07T00:11:59.578Z,65.61
2019-05-07T00:12:59.537Z,65.41
2019-05-07T00:13:59.502Z,65.61
2019-05-07T00:15:02.251Z,65.64
2019-05-07T00:16:02.458Z,65.64
2019-05-07T00:16:59.478Z,67.14
2019-05-07T00:17:59.466Z,67.14
2019-05-07T00:18:59.448Z,67.05
2019-05-07T00:19:59.472Z,66.84
2019-05-07T00:20:59.430Z,66.87
2019-05-07T00:21:59.453Z,67.14
2019-05-07T00:22:59.404Z,67.14
2019-05-07T00:23:59.392Z,67.56
2019-05-07T00:24:59.570Z,67.25
2019-05-07T00:25:59.375Z,67.18
2019-05-07T00:26:59.362Z,67.14
2019-05-07T00:27:59.361Z,67.69
2019-05-07T00:28:59.340Z,68.38
2019-05-07T00:29:59.417Z,68.51
2019-05-07T00:30:59.346Z,68.59
2019-05-07T00:31:59.298Z,68.92
2019-05-07T00:32:59.303Z,68.82
2019-05-07T00:33:59.322Z,68.82
2019-05-07T00:34:59.299Z,69.23
2019-05-07T00:35:59.312Z,69.54
2019-05-07T00:36:59.257Z,69.74
2019-05-07T00:37:59.248Z,69.74
2019-05-07T00:38:59.258Z,69.74
2019-05-07T00:39:59.236Z,69.95
2019-05-07T00:40:59.209Z,69.95
2019-05-07T00:41:59.228Z,70.05
2019-05-07T00:42:59.185Z,69.43
2019-05-07T00:43:59.184Z,70.26
2019-05-07T00:45:13.308Z,70.36
2019-05-07T00:46:02.147Z,70.46
2019-05-07T00:46:59.204Z,70.80
2019-05-07T00:47:59.129Z,70.56
2019-05-07T00:48:59.134Z,71.08
2019-05-07T00:49:59.141Z,70.97
2019-05-07T00:50:59.107Z,71.08
2019-05-07T00:51:59.085Z,71.18
2019-05-07T00:52:59.072Z,71.08
2019-05-07T00:53:59.075Z,71.39
2019-05-07T00:54:59.101Z,71.31
2019-05-07T00:55:59.051Z,71.21
2019-05-07T00:56:59.075Z,71.21
2019-05-07T00:57:59.011Z,71.42
2019-05-07T00:58:59.099Z,71.83
2019-05-07T00:59:59.063Z,71.93
2019-05-07T01:00:59.001Z,72.55
2019-05-07T01:01:58.987Z,72.85
2019-05-07T01:02:58.976Z,72.55
2019-05-07T01:03:59.123Z,72.85
2019-05-07T01:04:59.003Z,72.65
2019-05-07T01:05:58.978Z,72.55
2019-05-07T01:06:58.933Z,72.96
2019-05-07T01:07:58.927Z,73.16
2019-05-07T01:08:58.933Z,73.88
2019-05-07T01:09:58.891Z,73.78
2019-05-07T01:10:58.910Z,73.47
2019-05-07T01:11:58.897Z,73.57
2019-05-07T01:12:59.391Z,74.49
2019-05-07T01:13:58.839Z,73.98
2019-05-07T01:14:58.833Z,74.19
2019-05-07T01:15:58.841Z,74.84
2019-05-07T01:16:58.835Z,74.94
2019-05-07T01:17:58.803Z,74.63
2019-05-07T01:18:58.799Z,74.02
2019-05-07T01:19:58.862Z,74.32
2019-05-07T01:20:58.813Z,74.53
2019-05-07T01:21:58.755Z,75.25
2019-05-07T01:22:58.751Z,75.45
2019-05-07T01:23:58.727Z,75.38
2019-05-07T01:24:58.733Z,75.29
2019-05-07T01:25:58.747Z,75.15
2019-05-07T01:26:58.699Z,75.87
2019-05-07T01:27:58.783Z,75.76
2019-05-07T01:28:58.699Z,76.00
2019-05-07T01:29:58.698Z,75.70
2019-05-07T01:30:58.718Z,75.59
2019-05-07T01:31:58.652Z,74.77
2019-05-07T01:32:58.635Z,75.08
2019-05-07T01:33:58.673Z,75.38
2019-05-07T01:34:58.627Z,74.57
2019-05-07T01:35:58.616Z,74.67
2019-05-07T01:36:58.581Z,74.67
2019-05-07T01:37:58.594Z,75.38
2019-05-07T01:38:58.563Z,75.80
2019-05-07T01:39:58.587Z,75.90
2019-05-07T01:40:58.566Z,74.98
2019-05-07T01:41:58.538Z,74.98
2019-05-07T01:42:58.528Z,75.38
2019-05-07T01:43:58.511Z,75.59
2019-05-07T01:44:58.498Z,75.90
2019-05-07T01:45:58.521Z,76.21
2019-05-07T01:46:58.476Z,76.14
2019-05-07T01:47:58.531Z,76.31
2019-05-07T01:48:58.460Z,76.21
2019-05-07T01:49:58.464Z,75.90
2019-05-07T01:50:58.454Z,76.04
2019-05-07T01:51:58.420Z,76.51
2019-05-07T01:52:58.426Z,76.21
2019-05-07T01:53:58.418Z,76.21
2019-05-07T01:54:58.396Z,76.25
2019-05-07T01:55:58.413Z,76.00
2019-05-07T01:56:58.359Z,76.10
2019-05-07T01:57:58.364Z,76.10
2019-05-07T01:58:58.364Z,76.10
2019-05-07T01:59:58.332Z,75.70
2019-05-07T02:00:58.394Z,75.38
2019-05-07T02:01:58.360Z,76.00
2019-05-07T02:02:58.301Z,75.42
2019-05-07T02:03:58.336Z,76.04
2019-05-07T02:04:58.292Z,75.63
2019-05-07T02:05:58.314Z,75.83
2019-05-07T02:06:58.259Z,75.73
2019-05-07T02:07:58.245Z,75.73
2019-05-07T02:08:58.262Z,75.63
2019-05-07T02:09:58.229Z,75.70
2019-05-07T02:10:58.242Z,76.10
2019-05-07T02:11:58.194Z,76.21
2019-05-07T02:12:58.190Z,76.51
2019-05-07T02:13:58.201Z,76.82
2019-05-07T02:14:58.230Z,76.31
2019-05-07T02:16:01.241Z,76.42
2019-05-07T02:16:59.142Z,76.42
2019-05-07T02:17:58.128Z,76.31
2019-05-07T02:18:58.248Z,76.97
2019-05-07T02:19:58.131Z,77.95
2019-05-07T02:20:58.121Z,76.14
2019-05-07T02:21:58.129Z,76.04
2019-05-07T02:22:58.115Z,76.25
2019-05-07T02:23:58.070Z,76.65
2019-05-07T02:24:58.686Z,77.06
2019-05-07T02:25:58.070Z,76.76
2019-05-07T02:26:58.040Z,76.86
2019-05-07T02:27:58.056Z,76.65
2019-05-07T02:28:58.006Z,77.06
2019-05-07T02:29:58.010Z,76.86
2019-05-07T02:30:58.017Z,76.35
2019-05-07T02:31:57.979Z,76.25
2019-05-07T02:32:57.986Z,76.55
2019-05-07T02:33:57.960Z,76.45
2019-05-07T02:34:57.950Z,76.45
2019-05-07T02:35:58.032Z,76.04
2019-05-07T02:36:57.946Z,76.25
2019-05-07T02:37:57.911Z,76.14
2019-05-07T02:38:57.905Z,76.14
2019-05-07T02:39:57.893Z,76.76
2019-05-07T02:40:57.887Z,77.99
2019-05-07T02:41:57.931Z,77.37
2019-05-07T02:42:57.878Z,76.45
2019-05-07T02:44:00.139Z,76.55
2019-05-07T02:44:58.828Z,76.55
2019-05-07T02:46:15.972Z,76.86
2019-05-07T02:46:58.839Z,76.65
2019-05-07T02:47:57.796Z,76.45
2019-05-07T02:48:57.808Z,76.65
2019-05-07T02:49:57.802Z,76.76
2019-05-07T02:50:57.817Z,77.06
2019-05-07T02:51:57.799Z,76.35
2019-05-07T02:52:57.769Z,76.25
2019-05-07T02:53:57.755Z,76.04
2019-05-07T02:54:57.783Z,76.04
2019-05-07T02:55:57.746Z,75.93
2019-05-07T02:56:57.718Z,76.04
2019-05-07T02:57:57.743Z,76.14
2019-05-07T02:58:57.684Z,74.80
2019-05-07T02:59:57.702Z,75.01
2019-05-07T03:00:57.656Z,75.01
2019-05-07T03:01:57.676Z,75.32
2019-05-07T03:02:57.677Z,75.52
2019-05-07T03:03:57.612Z,75.63
2019-05-07T03:04:57.608Z,76.04
2019-05-07T03:05:57.597Z,75.52
2019-05-07T03:06:57.616Z,75.73
2019-05-07T03:07:57.575Z,75.83
2019-05-07T03:08:57.623Z,75.52
2019-05-07T03:09:57.566Z,75.01
2019-05-07T03:10:57.553Z,75.42
2019-05-07T03:11:57.564Z,76.04
2019-05-07T03:12:57.588Z,75.93
2019-05-07T03:13:57.513Z,75.52
2019-05-07T03:14:57.494Z,74.60
2019-05-07T03:15:57.517Z,74.40
2019-05-07T03:16:57.503Z,74.40
2019-05-07T03:17:57.478Z,74.91
2019-05-07T03:18:57.456Z,74.08
2019-05-07T03:19:57.468Z,74.70
2019-05-07T03:20:57.490Z,75.32
2019-05-07T03:21:57.426Z,75.52
2019-05-07T03:22:57.453Z,75.63
2019-05-07T03:23:57.465Z,75.52
2019-05-07T03:24:57.385Z,75.83
2019-05-07T03:25:57.387Z,75.63
2019-05-07T03:26:57.974Z,75.83
2019-05-07T03:27:57.379Z,75.52
2019-05-07T03:28:57.361Z,75.21
2019-05-07T03:29:57.334Z,74.91
2019-05-07T03:30:57.465Z,75.42
2019-05-07T03:31:57.348Z,75.52
2019-05-07T03:32:57.322Z,75.32
2019-05-07T03:33:57.304Z,75.63
2019-05-07T03:34:58.323Z,75.42
2019-05-07T03:35:57.367Z,76.04
2019-05-07T03:36:57.565Z,75.83
2019-05-07T03:37:57.282Z,75.93
2019-05-07T03:38:57.238Z,75.93
2019-05-07T03:39:57.246Z,75.52
2019-05-07T03:40:57.204Z,76.45
2019-05-07T03:41:57.258Z,76.04
2019-05-07T03:42:57.203Z,76.04
2019-05-07T03:43:57.168Z,75.93
2019-05-07T03:44:57.168Z,76.04
2019-05-07T03:45:57.183Z,76.45
2019-05-07T03:47:02.371Z,76.65
2019-05-07T03:47:58.133Z,76.76
2019-05-07T03:48:57.115Z,77.48
2019-05-07T03:49:57.109Z,77.99
2019-05-07T03:50:57.142Z,77.58
2019-05-07T03:51:57.104Z,77.17
2019-05-07T03:52:57.103Z,76.45
2019-05-07T03:53:57.067Z,76.65
2019-05-07T03:54:57.975Z,76.42
2019-05-07T03:55:57.031Z,76.21
2019-05-07T03:57:01.555Z,76.14
2019-05-07T03:57:58.033Z,76.21
2019-05-07T03:58:57.094Z,75.80
2019-05-07T03:59:56.996Z,76.00
2019-05-07T04:00:56.971Z,75.29
2019-05-07T04:01:56.967Z,75.38
2019-05-07T04:02:57.022Z,74.36
2019-05-07T04:03:56.951Z,75.29
2019-05-07T04:04:56.958Z,74.77
2019-05-07T04:05:56.919Z,74.36
2019-05-07T04:06:57.492Z,74.67
2019-05-07T04:07:56.912Z,74.77
2019-05-07T04:08:56.914Z,74.67
2019-05-07T04:09:56.873Z,74.46
2019-05-07T04:10:56.885Z,74.87
2019-05-07T04:11:56.865Z,75.49
2019-05-07T04:12:56.855Z,74.67
2019-05-07T04:13:56.852Z,74.46
2019-05-07T04:14:56.826Z,75.59
2019-05-07T04:15:56.853Z,75.18
2019-05-07T04:17:13.135Z,75.59
2019-05-07T04:17:57.798Z,75.63
2019-05-07T04:18:56.804Z,75.63
2019-05-07T04:19:56.830Z,75.63
2019-05-07T04:20:56.759Z,75.18
2019-05-07T04:21:56.784Z,75.80
2019-05-07T04:22:56.754Z,75.80
2019-05-07T04:23:56.755Z,75.73
2019-05-07T04:24:56.709Z,75.73
2019-05-07T04:25:56.718Z,75.49
2019-05-07T04:26:56.698Z,76.04
2019-05-07T04:27:56.677Z,75.08
2019-05-07T04:28:56.698Z,75.01
2019-05-07T04:29:56.721Z,75.01
2019-05-07T04:30:56.670Z,74.70
2019-05-07T04:31:56.698Z,75.01
2019-05-07T04:32:56.667Z,74.36
2019-05-07T04:33:56.624Z,75.18
2019-05-07T04:34:56.596Z,74.77
2019-05-07T04:35:56.614Z,75.29
2019-05-07T04:36:56.642Z,74.57
2019-05-07T04:37:56.564Z,74.26
2019-05-07T04:38:56.585Z,74.46
2019-05-07T04:39:56.587Z,75.32
2019-05-07T04:40:56.533Z,74.77
2019-05-07T04:41:56.534Z,74.70
2019-05-07T04:42:56.516Z,75.12
2019-05-07T04:43:56.509Z,74.70
2019-05-07T04:44:56.486Z,75.32
2019-05-07T04:45:56.519Z,74.46
2019-05-07T04:46:56.468Z,74.67
2019-05-07T04:47:56.493Z,75.01
2019-05-07T04:48:56.496Z,74.60
2019-05-07T04:49:56.443Z,74.57
2019-05-07T04:50:56.500Z,74.15
2019-05-07T04:51:56.416Z,74.36
2019-05-07T04:52:56.411Z,74.98
2019-05-07T04:53:56.411Z,74.57
2019-05-07T04:54:56.377Z,74.26
2019-05-07T04:55:56.384Z,74.15
2019-05-07T04:56:56.355Z,73.74
2019-05-07T04:57:56.370Z,73.44
2019-05-07T04:58:56.366Z,73.02
2019-05-07T04:59:56.317Z,73.23
2019-05-07T05:00:56.302Z,73.44
2019-05-07T05:01:56.287Z,73.23
2019-05-07T05:02:56.288Z,73.61
2019-05-07T05:03:56.281Z,73.74
2019-05-07T05:04:56.415Z,73.54
2019-05-07T05:05:56.334Z,73.64
2019-05-07T05:06:56.233Z,73.23
2019-05-07T05:07:56.229Z,73.54
2019-05-07T05:08:56.543Z,73.54
2019-05-07T05:09:57.102Z,73.13
2019-05-07T05:10:56.222Z,73.44
2019-05-07T05:11:56.185Z,73.33
2019-05-07T05:12:56.174Z,73.13
2019-05-07T05:13:56.241Z,72.72
2019-05-07T05:14:56.167Z,72.41
2019-05-07T05:15:56.148Z,72.82
2019-05-07T05:16:56.167Z,72.51
2019-05-07T05:17:56.272Z,72.20
2019-05-07T05:18:56.111Z,72.31
2019-05-07T05:19:56.119Z,72.51
2019-05-07T05:20:56.612Z,72.41
2019-05-07T05:21:56.089Z,72.20
2019-05-07T05:22:56.050Z,72.10
2019-05-07T05:23:56.045Z,72.00
2019-05-07T05:24:56.197Z,71.79
2019-05-07T05:25:56.029Z,71.69
2019-05-07T05:26:56.047Z,71.48
2019-05-07T05:27:55.998Z,71.08
2019-05-07T05:28:56.000Z,71.17
2019-05-07T05:29:56.009Z,71.38
2019-05-07T05:30:56.080Z,71.69
2019-05-07T05:31:55.970Z,71.89
2019-05-07T05:32:55.965Z,71.89
2019-05-07T05:33:55.926Z,71.69
2019-05-07T05:34:56.086Z,71.17
2019-05-07T05:35:55.911Z,70.66
2019-05-07T05:36:55.916Z,70.46
2019-05-07T05:37:55.890Z,70.56
2019-05-07T05:38:55.870Z,70.36
2019-05-07T05:40:05.241Z,70.32
2019-05-07T05:40:56.845Z,69.91
2019-05-07T05:41:55.836Z,70.22
2019-05-07T05:42:55.833Z,70.25
2019-05-07T05:43:55.893Z,70.22
2019-05-07T05:44:55.871Z,70.01
2019-05-07T05:45:55.790Z,70.36
2019-05-07T05:46:55.812Z,70.76
2019-05-07T05:48:04.563Z,70.66
2019-05-07T05:48:56.755Z,70.66
2019-05-07T05:49:55.785Z,70.63
2019-05-07T05:50:55.791Z,70.73
2019-05-07T05:51:55.729Z,70.76
2019-05-07T05:52:55.762Z,70.63
2019-05-07T05:53:55.700Z,70.22
2019-05-07T05:54:55.707Z,69.70
2019-05-07T05:55:55.698Z,69.09
2019-05-07T05:56:55.705Z,68.99
2019-05-07T05:57:55.663Z,68.88
2019-05-07T05:58:55.657Z,68.96
2019-05-07T05:59:55.715Z,68.78
2019-05-07T06:00:55.659Z,68.13
2019-05-07T06:01:55.626Z,67.21
2019-05-07T06:02:56.166Z,67.72
2019-05-07T06:03:55.610Z,67.52
2019-05-07T06:04:55.588Z,67.21
2019-05-07T06:05:55.600Z,66.49
2019-05-07T06:07:08.022Z,65.98
2019-05-07T06:07:56.539Z,65.88
2019-05-07T06:08:55.533Z,65.77
2019-05-07T06:09:55.546Z,65.77
2019-05-07T06:10:55.538Z,66.28
2019-05-07T06:11:55.539Z,65.67
2019-05-07T06:12:55.490Z,65.47
2019-05-07T06:13:55.475Z,66.80
2019-05-07T06:14:55.512Z,66.70
2019-05-07T06:15:55.514Z,65.88
2019-05-07T06:16:55.502Z,66.19
2019-05-07T06:17:55.476Z,65.77
2019-05-07T06:18:55.468Z,65.98
2019-05-07T06:19:55.426Z,66.08
2019-05-07T06:20:55.577Z,66.19
2019-05-07T06:21:55.406Z,65.95
2019-05-07T06:22:55.408Z,67.11
2019-05-07T06:23:55.369Z,67.18
2019-05-07T06:24:56.529Z,66.46
2019-05-07T06:25:55.364Z,67.25
2019-05-07T06:26:55.432Z,67.59
2019-05-07T06:27:55.327Z,65.81
2019-05-07T06:28:55.362Z,65.51
2019-05-07T06:29:55.295Z,65.68
2019-05-07T06:30:55.313Z,65.48
2019-05-07T06:31:55.307Z,65.89
2019-05-07T06:32:55.275Z,65.58
2019-05-07T06:33:55.263Z,65.37
2019-05-07T06:34:55.280Z,63.84
2019-05-07T06:35:55.253Z,64.14
2019-05-07T06:36:55.237Z,63.20
2019-05-07T06:37:55.230Z,63.84
2019-05-07T06:38:55.234Z,62.92
2019-05-07T06:39:55.252Z,62.40
2019-05-07T06:40:55.215Z,62.68
2019-05-07T06:41:55.165Z,62.58
2019-05-07T06:42:55.165Z,61.66
2019-05-07T06:43:55.183Z,61.58
2019-05-07T06:44:55.133Z,62.10
2019-05-07T06:45:55.136Z,62.40
2019-05-07T06:46:55.148Z,62.37
2019-05-07T06:47:55.117Z,62.17
2019-05-07T06:48:55.167Z,62.27
2019-05-07T06:49:55.114Z,61.18
2019-05-07T06:50:55.095Z,60.97
2019-05-07T06:51:55.104Z,60.66
2019-05-07T06:52:55.045Z,61.27
2019-05-07T06:53:55.080Z,61.07
2019-05-07T06:54:55.034Z,60.56
2019-05-07T06:55:55.025Z,60.46
2019-05-07T06:56:55.112Z,60.15
2019-05-07T06:57:55.013Z,59.53
2019-05-07T06:58:55.000Z,60.25
2019-05-07T06:59:55.058Z,59.94
2019-05-07T07:00:54.957Z,59.33
2019-05-07T07:01:55.049Z,59.81
2019-05-07T07:02:54.968Z,59.74
2019-05-07T07:03:55.110Z,59.20
2019-05-07T07:04:54.923Z,59.74
2019-05-07T07:05:55.413Z,59.43
2019-05-07T07:06:55.055Z,58.38
2019-05-07T07:07:54.929Z,57.87
2019-05-07T07:08:54.898Z,58.48
2019-05-07T07:09:54.922Z,57.76
2019-05-07T07:10:54.843Z,56.74
2019-05-07T07:11:54.873Z,55.92
2019-05-07T07:12:54.871Z,55.92
2019-05-07T07:13:54.893Z,55.30
2019-05-07T07:14:56.574Z,54.82
2019-05-07T07:15:54.791Z,55.85
2019-05-07T07:16:54.847Z,55.92
2019-05-07T07:17:54.780Z,55.62
2019-05-07T07:18:55.746Z,55.43
2019-05-07T07:19:54.754Z,55.10
2019-05-07T07:20:54.758Z,53.87
2019-05-07T07:21:54.932Z,54.41
2019-05-07T07:22:54.726Z,54.18
2019-05-07T07:23:54.727Z,53.87
2019-05-07T07:24:54.707Z,54.18
2019-05-07T07:25:54.695Z,53.77
2019-05-07T07:26:54.721Z,54.38
2019-05-07T07:27:54.666Z,53.97
2019-05-07T07:28:54.696Z,53.75
2019-05-07T07:29:54.643Z,54.16
2019-05-07T07:30:54.646Z,54.16
2019-05-07T07:31:54.686Z,53.75
2019-05-07T07:32:54.612Z,52.83
2019-05-07T07:33:54.585Z,52.62
2019-05-07T07:34:54.584Z,52.59
2019-05-07T07:35:54.638Z,51.57
2019-05-07T07:37:05.468Z,51.16
2019-05-07T07:37:55.564Z,50.24
2019-05-07T07:38:54.540Z,50.24
2019-05-07T07:39:54.532Z,49.42
2019-05-07T07:40:54.516Z,49.81
2019-05-07T07:41:54.606Z,48.07
2019-05-07T07:42:54.509Z,49.22
2019-05-07T07:43:54.514Z,49.19
2019-05-07T07:44:54.462Z,49.50
2019-05-07T07:45:54.467Z,49.40
2019-05-07T07:46:54.447Z,49.79
2019-05-07T07:47:54.742Z,49.79
2019-05-07T07:49:06.729Z,50.20
2019-05-07T07:49:55.432Z,49.99
2019-05-07T07:50:54.535Z,49.48
2019-05-07T07:51:54.402Z,49.68
2019-05-07T07:52:54.432Z,49.38
2019-05-07T07:53:54.391Z,49.48
2019-05-07T07:54:54.367Z,49.38
2019-05-07T07:55:54.455Z,48.23
2019-05-07T07:56:56.579Z,46.41
2019-05-07T07:57:54.360Z,47.20
2019-05-07T07:58:54.331Z,47.03
2019-05-07T07:59:54.390Z,47.33
2019-05-07T08:00:54.322Z,47.44
2019-05-07T08:01:54.282Z,47.23
2019-05-07T08:02:54.339Z,47.13
2019-05-07T08:03:54.265Z,46.31
2019-05-07T08:04:54.256Z,45.70
2019-05-07T08:05:54.261Z,46.00
2019-05-07T08:06:54.220Z,45.37
2019-05-07T08:07:54.288Z,45.06
2019-05-07T08:08:54.222Z,45.57
2019-05-07T08:09:54.186Z,44.73
2019-05-07T08:10:54.200Z,44.12
2019-05-07T08:11:54.163Z,44.12
2019-05-07T08:12:54.280Z,45.86
2019-05-07T08:13:54.152Z,43.51
2019-05-07T08:14:54.571Z,43.61
2019-05-07T08:15:54.210Z,42.38
2019-05-07T08:16:54.697Z,42.18
2019-05-07T08:17:54.250Z,42.08
2019-05-07T08:18:54.180Z,41.97
2019-05-07T08:19:54.080Z,43.20
2019-05-07T08:20:54.076Z,43.20
2019-05-07T08:21:54.086Z,44.24
2019-05-07T08:22:54.148Z,44.45
2019-05-07T08:23:54.100Z,45.06
2019-05-07T08:24:54.027Z,45.26
2019-05-07T08:25:54.012Z,45.26
2019-05-07T08:26:54.021Z,44.35
2019-05-07T08:27:54.012Z,44.76
2019-05-07T08:28:54.022Z,44.94
2019-05-07T08:29:54.020Z,45.25
2019-05-07T08:30:54.074Z,45.65
2019-05-07T08:31:53.956Z,45.43
2019-05-07T08:32:54.601Z,44.00
2019-05-07T08:33:54.052Z,43.79
2019-05-07T08:34:53.947Z,43.59
2019-05-07T08:35:53.951Z,43.79
2019-05-07T08:36:53.948Z,42.67
2019-05-07T08:37:53.936Z,42.06
2019-05-07T08:38:53.942Z,41.85
2019-05-07T08:39:53.874Z,42.26
2019-05-07T08:40:53.918Z,41.85
2019-05-07T08:41:53.828Z,42.16
2019-05-07T08:42:54.012Z,41.35
2019-05-07T08:44:07.763Z,41.04
2019-05-07T08:44:54.845Z,40.83
2019-05-07T08:45:53.791Z,41.04
2019-05-07T08:46:53.785Z,40.10
2019-05-07T08:47:53.786Z,39.87
2019-05-07T08:48:53.809Z,39.86
2019-05-07T08:49:53.993Z,40.17
2019-05-07T08:50:53.729Z,40.37
2019-05-07T08:51:54.481Z,40.28
2019-05-07T08:52:53.732Z,41.19
2019-05-07T08:53:53.696Z,41.61
2019-05-07T08:54:53.694Z,41.61
2019-05-07T08:55:53.808Z,42.02
2019-05-07T08:56:53.657Z,41.41
2019-05-07T08:57:53.743Z,41.61
2019-05-07T08:58:53.646Z,41.92
2019-05-07T09:00:00.383Z,42.02
2019-05-07T09:00:54.699Z,42.53
2019-05-07T09:01:53.609Z,42.33
2019-05-07T09:02:53.619Z,42.35
2019-05-07T09:03:53.667Z,42.22
2019-05-07T09:04:53.604Z,41.41
2019-05-07T09:05:53.593Z,39.26
2019-05-07T09:06:53.644Z,39.37
2019-05-07T09:07:53.596Z,39.26
2019-05-07T09:08:53.518Z,40.67
2019-05-07T09:09:53.545Z,40.17
2019-05-07T09:10:53.741Z,40.35
2019-05-07T09:11:53.508Z,39.64
2019-05-07T09:12:53.705Z,39.42
2019-05-07T09:13:53.529Z,39.11
2019-05-07T09:14:53.550Z,39.21
2019-05-07T09:15:53.560Z,39.82
2019-05-07T09:16:53.470Z,38.09
2019-05-07T09:17:53.419Z,39.21
2019-05-07T09:18:53.446Z,39.62
2019-05-07T09:19:54.950Z,38.80
2019-05-07T09:20:53.393Z,38.07
2019-05-07T09:21:53.398Z,37.79
2019-05-07T09:22:53.382Z,37.58
2019-05-07T09:23:53.975Z,36.87
2019-05-07T09:24:53.437Z,37.07
2019-05-07T09:25:53.364Z,36.56
2019-05-07T09:26:53.453Z,34.64
2019-05-07T09:27:54.207Z,34.66
2019-05-07T09:28:53.493Z,35.56
2019-05-07T09:29:53.293Z,36.88
2019-05-07T09:30:53.306Z,36.17
2019-05-07T09:31:53.265Z,37.27
2019-05-07T09:32:53.590Z,36.16
2019-05-07T09:33:53.276Z,37.27
2019-05-07T09:34:53.254Z,38.38
2019-05-07T09:35:53.237Z,38.48
2019-05-07T09:37:02.909Z,37.77
2019-05-07T09:37:53.364Z,37.26
2019-05-07T09:38:59.225Z,37.16
2019-05-07T09:39:55.087Z,37.97
2019-05-07T09:40:53.221Z,37.87
2019-05-07T09:41:53.303Z,38.87
2019-05-07T09:42:53.164Z,37.85
2019-05-07T09:43:53.190Z,37.34
2019-05-07T09:44:53.173Z,37.04
2019-05-07T09:49:00.015Z,35.60
2019-05-07T09:50:04.664Z,35.09
2019-05-07T09:51:02.347Z,34.16
2019-05-07T09:52:02.175Z,33.44
2019-05-07T09:53:02.120Z,33.24
2019-05-07T09:54:02.392Z,34.27
2019-05-07T09:55:02.615Z,34.27
2019-05-07T09:56:02.141Z,34.48
2019-05-07T09:57:01.946Z,35.41
2019-05-07T09:58:01.615Z,35.41
2019-05-07T09:59:02.039Z,35.22
2019-05-07T10:00:02.045Z,35.75
2019-05-07T10:01:02.050Z,36.16
2019-05-07T10:02:01.660Z,36.25
2019-05-07T10:02:59.831Z,36.36
2019-05-07T10:03:59.850Z,36.97
2019-05-07T10:05:02.069Z,37.17
2019-05-07T10:06:02.055Z,36.87
2019-05-07T10:06:59.791Z,38.09
2019-05-07T10:08:01.755Z,37.68
2019-05-07T10:08:59.867Z,37.38
2019-05-07T10:09:59.755Z,36.77
2019-05-07T10:10:59.767Z,36.25
2019-05-07T10:11:59.739Z,35.85
2019-05-07T10:13:01.714Z,35.75
2019-05-07T10:14:01.498Z,35.44
2019-05-07T10:14:59.735Z,35.73
2019-05-07T10:15:59.707Z,34.61
2019-05-07T10:17:02.763Z,35.21
2019-05-07T10:18:01.725Z,34.49
2019-05-07T10:18:59.702Z,34.49
2019-05-07T10:19:59.649Z,33.48
2019-05-07T10:20:59.639Z,34.07
2019-05-07T10:21:59.635Z,33.56
2019-05-07T10:22:59.601Z,32.75
2019-05-07T10:23:59.665Z,32.83
2019-05-07T10:24:59.586Z,32.43
2019-05-07T10:26:01.669Z,33.34
2019-05-07T10:26:59.618Z,34.44
2019-05-07T10:27:59.564Z,33.43
2019-05-07T10:28:59.574Z,33.21
2019-05-07T10:29:59.583Z,31.99
2019-05-07T10:30:59.519Z,31.08
2019-05-07T10:31:59.542Z,30.57
2019-05-07T10:33:01.665Z,31.28
2019-05-07T10:33:59.538Z,31.38
2019-05-07T10:35:01.476Z,31.06
2019-05-07T10:35:59.488Z,31.26
2019-05-07T10:36:59.471Z,31.87
2019-05-07T10:37:59.524Z,31.76
2019-05-07T10:38:59.443Z,31.25
2019-05-07T10:39:59.453Z,31.25
2019-05-07T10:40:59.414Z,31.77
2019-05-07T10:41:59.422Z,32.18
2019-05-07T10:42:59.402Z,32.79
2019-05-07T10:43:59.431Z,32.68
2019-05-07T10:44:59.502Z,33.62
2019-05-07T10:46:02.247Z,33.72
2019-05-07T10:46:59.339Z,33.23
2019-05-07T10:47:59.453Z,33.02
2019-05-07T10:48:59.324Z,32.51
2019-05-07T10:50:00.138Z,33.04
2019-05-07T10:50:59.314Z,33.65
2019-05-07T10:51:59.281Z,33.14
2019-05-07T10:52:59.340Z,33.65
2019-05-07T10:53:59.284Z,33.24
2019-05-07T10:55:00.018Z,33.44
2019-05-07T10:55:59.312Z,33.24
2019-05-07T10:56:59.226Z,33.05
2019-05-07T10:57:59.216Z,33.76
2019-05-07T10:58:59.199Z,33.66
2019-05-07T10:59:59.770Z,32.65
2019-05-07T11:00:59.181Z,33.27
2019-05-07T11:01:59.185Z,32.97
2019-05-07T11:02:59.188Z,33.88
2019-05-07T11:03:59.160Z,33.46
2019-05-07T11:04:59.275Z,33.66
2019-05-07T11:05:59.171Z,32.44
2019-05-07T11:06:59.156Z,32.83
2019-05-07T11:07:59.158Z,32.93
2019-05-07T11:10:49.136Z,32.62
2019-05-07T11:11:49.108Z,32.62
2019-05-07T11:12:49.071Z,32.82
2019-05-07T11:13:49.084Z,32.83
2019-05-07T11:14:49.054Z,32.83
2019-05-07T11:15:49.173Z,32.32
2019-05-07T11:16:49.088Z,31.10
2019-05-07T11:17:49.014Z,31.62
2019-05-07T11:18:49.019Z,32.01
2019-05-07T11:19:49.045Z,32.21
2019-05-07T11:20:52.798Z,32.10
2019-05-07T11:21:49.015Z,32.40
2019-05-07T11:22:49.024Z,32.10
2019-05-07T11:23:48.947Z,32.31
2019-05-07T11:24:48.975Z,32.01
2019-05-07T11:25:48.965Z,31.38
2019-05-07T11:26:48.944Z,32.10
2019-05-07T11:27:48.926Z,31.20
2019-05-07T11:28:48.940Z,31.29
2019-05-07T11:29:48.890Z,30.79
2019-05-07T11:30:48.923Z,29.57
2019-05-07T11:31:48.876Z,29.67
2019-05-07T11:32:48.959Z,30.28
2019-05-07T11:33:48.868Z,30.57
2019-05-07T11:34:48.843Z,29.33
2019-05-07T11:35:49.696Z,29.25
2019-05-07T11:36:48.827Z,29.13
2019-05-07T11:37:48.876Z,29.13
2019-05-07T11:38:48.821Z,29.63
2019-05-07T11:39:48.954Z,28.92
2019-05-07T11:40:48.847Z,29.83
2019-05-07T11:41:48.762Z,29.32
2019-05-07T11:42:48.747Z,28.71
2019-05-07T11:43:49.271Z,29.12
2019-05-07T11:44:48.737Z,29.41
2019-05-07T11:45:48.741Z,29.71
2019-05-07T11:46:48.706Z,29.31
2019-05-07T11:47:48.764Z,30.41
2019-05-07T11:48:48.709Z,28.89
2019-05-07T11:49:48.699Z,28.79
2019-05-07T11:51:00.494Z,28.89
2019-05-07T11:51:51.621Z,29.30
2019-05-07T11:52:48.630Z,29.19
2019-05-07T11:53:48.655Z,28.49
2019-05-07T11:54:48.607Z,28.69
2019-05-07T11:55:48.625Z,27.97
2019-05-07T11:56:49.142Z,28.69
2019-05-07T11:57:48.583Z,28.08
2019-05-07T11:58:50.787Z,28.99
2019-05-07T11:59:48.560Z,29.30
2019-05-07T12:00:48.610Z,28.69
2019-05-07T12:01:48.565Z,29.60
2019-05-07T12:02:48.557Z,29.08
2019-05-07T12:03:48.497Z,28.89
2019-05-07T12:04:48.501Z,28.38
2019-05-07T12:05:48.554Z,28.99
2019-05-07T12:06:49.089Z,28.79
2019-05-07T12:07:48.529Z,28.49
2019-05-07T12:08:51.934Z,28.79
2019-05-07T12:09:48.455Z,29.08
2019-05-07T12:10:48.733Z,29.19
2019-05-07T12:11:48.416Z,29.60
2019-05-07T12:12:48.426Z,29.99
2019-05-07T12:13:48.946Z,29.38
2019-05-07T12:14:48.379Z,29.18
2019-05-07T12:15:48.400Z,29.58
2019-05-07T12:16:48.364Z,29.49
2019-05-07T12:17:48.452Z,29.99
2019-05-07T12:18:48.374Z,28.79
2019-05-07T12:19:48.337Z,28.69
2019-05-07T12:20:48.382Z,28.79
2019-05-07T12:21:48.307Z,29.39
2019-05-07T12:22:48.347Z,29.19
2019-05-07T12:23:48.318Z,28.37
2019-05-07T12:24:48.273Z,28.98
2019-05-07T12:25:49.148Z,28.47
2019-05-07T12:26:48.367Z,27.76
2019-05-07T12:27:48.235Z,27.66
2019-05-07T12:28:49.092Z,28.27
2019-05-07T12:29:48.257Z,28.79
2019-05-07T12:30:48.273Z,29.30
2019-05-07T12:31:48.197Z,29.00
2019-05-07T12:32:48.260Z,28.90
2019-05-07T12:33:48.193Z,29.11
2019-05-07T12:34:48.168Z,28.71
2019-05-07T12:35:48.176Z,29.63
2019-05-07T12:36:48.227Z,28.81
2019-05-07T12:37:49.616Z,30.35
2019-05-07T12:38:48.120Z,30.64
2019-05-07T12:39:48.131Z,30.25
2019-05-07T12:40:48.156Z,30.54
2019-05-07T12:41:48.680Z,30.04
2019-05-07T12:42:48.108Z,28.93
2019-05-07T12:43:48.084Z,29.33
2019-05-07T12:44:48.037Z,29.13
2019-05-07T12:45:48.053Z,29.03
2019-05-07T12:46:58.188Z,29.12
2019-05-07T12:47:48.010Z,28.52
2019-05-07T12:48:48.050Z,29.22
2019-05-07T12:51:12.589Z,28.52
2019-05-07T12:52:19.376Z,29.33
2019-05-07T12:53:18.215Z,28.63
2019-05-07T12:54:19.701Z,28.83
2019-05-07T12:55:18.979Z,28.81
2019-05-07T12:56:11.152Z,29.93
2019-05-07T12:57:11.763Z,29.63
2019-05-07T12:58:12.625Z,28.81
2019-05-07T12:59:12.835Z,29.02